CDT,Max TemperatureF,Mean TemperatureF,Min TemperatureF,Max Dew PointF,MeanDew PointF,Min DewpointF,Max Humidity, Mean Humidity, Min Humidity, Max Sea Level PressureIn, Mean Sea Level PressureIn, Min Sea Level PressureIn, Max VisibilityMiles, Mean VisibilityMiles, Min VisibilityMiles, Max Wind SpeedMPH, Mean Wind SpeedMPH, Max Gust SpeedMPH,PrecipitationIn, CloudCover, Events, WindDirDegrees
2013-3-1,63,51,39,33,30,23,79,50,21,30.26,30.20,30.14,10,10,10,24,8,30,0.00,0,,327
2013-3-2,53,44,35,32,28,23,82,57,32,30.33,30.28,30.22,10,10,10,22,9,28,0.00,0,,337
2013-3-3,60,46,31,42,31,20,89,56,23,30.33,30.23,30.11,10,10,7,12,4,17,0.00,0,,188
2013-3-4,73,59,44,60,54,42,87,72,57,30.09,29.98,29.89,10,10,10,23,11,32,0.00,4,,180
2013-3-5,73,63,52,61,43,26,90,55,20,30.30,30.11,29.89,10,10,8,26,11,32,T,3,Rain,322
2013-3-6,68,54,39,42,28,17,89,52,14,30.42,30.33,30.27,10,10,10,16,6,21,0.00,0,,8
2013-3-7,65,53,41,42,36,30,89,59,28,30.37,30.29,30.25,10,10,10,12,4,14,0.00,0,,100
2013-3-8,72,58,43,53,47,40,96,69,42,30.30,30.23,30.14,10,9,4,16,7,21,0.00,0,,112
2013-3-9,73,64,55,62,58,52,93,81,68,30.12,30.02,29.86,10,8,3,21,10,28,T,3,Rain,130
2013-3-10,74,64,53,65,57,39,93,81,68,30.03,29.89,29.82,10,6,1,25,9,37,1.06,8,Rain-Thunderstorm,14
2013-3-11,61,51,41,39,34,30,82,57,32,30.12,30.05,29.99,10,10,10,24,9,35,T,3,,336
2013-3-12,70,54,37,45,37,30,92,58,23,30.29,30.19,30.11,10,10,8,10,3,17,0.00,0,,310
2013-3-13,72,57,42,44,35,25,93,55,17,30.47,30.38,30.29,10,10,5,20,6,23,0.00,0,,27
2013-3-14,69,55,40,45,39,30,93,60,26,30.48,30.40,30.34,10,10,10,14,5,16,0.00,0,,170
2013-3-15,73,59,45,58,52,42,93,75,57,30.32,30.24,30.13,10,10,9,17,6,25,0.00,0,,189
2013-3-16,76,67,57,60,57,55,93,73,53,30.11,30.02,29.95,10,10,10,18,9,26,0.00,1,,185
2013-3-17,77,67,57,67,63,56,93,81,69,29.95,29.87,29.77,10,9,6,18,9,26,0.00,6,,164
2013-3-18,81,74,67,68,66,64,97,78,58,29.93,29.83,29.76,10,5,0,15,7,22,0.00,6,Fog,204
2013-3-19,78,67,55,64,50,40,84,61,37,30.04,29.99,29.91,10,10,7,23,10,29,0.00,2,,67
2013-3-20,75,63,51,49,41,29,83,51,19,30.22,30.12,30.00,10,10,6,26,11,35,0.13,3,Rain-Thunderstorm,41
2013-3-21,70,60,50,55,44,35,78,53,28,30.08,29.95,29.82,10,10,10,23,11,28,T,3,,118
2013-3-22,80,70,60,68,65,57,97,83,69,29.83,29.77,29.70,10,9,2,20,9,28,0.00,7,Rain,174
2013-3-23,75,72,68,70,68,66,97,91,84,29.80,29.68,29.57,10,4,0,14,5,15,0.08,8,Fog-Rain,64
2013-3-24,69,58,46,66,49,27,90,58,26,30.13,29.84,29.65,10,9,7,26,13,36,T,5,Rain,341
2013-3-25,63,51,39,32,25,18,70,44,17,30.36,30.25,30.16,10,10,10,21,10,26,0.00,0,,351
2013-3-26,61,47,33,33,23,19,79,50,20,30.50,30.41,30.35,10,10,10,18,6,23,0.00,0,,358
2013-3-27,64,50,36,41,36,31,85,60,34,30.46,30.38,30.30,10,10,10,13,5,18,0.00,0,,150
2013-3-28,72,58,43,54,48,39,93,70,47,30.37,30.30,30.26,10,10,9,14,5,20,0.00,4,,128
2013-3-29,76,63,50,58,54,48,100,75,50,30.31,30.25,30.20,10,8,2,14,6,18,0.00,1,,148
2013-3-30,77,67,57,62,59,55,93,73,53,30.20,30.12,30.04,10,9,1,17,6,24,0.00,3,,180
2013-3-31,77,67,56,67,62,55,100,85,69,30.03,29.98,29.91,10,6,0,32,8,44,0.90,7,Fog-Rain-Thunderstorm,183